createdAt,value
2024-03-10T00:00:54.697Z,47.08
2024-03-10T00:03:41.776Z,47.20
2024-03-10T00:06:27.405Z,44.83
2024-03-10T00:09:13.087Z,48.80
2024-03-10T00:11:58.803Z,52.38
2024-03-10T00:14:44.348Z,44.33
2024-03-10T00:17:29.929Z,44.58
2024-03-10T00:20:15.724Z,52.97
2024-03-10T00:23:01.295Z,45.28
2024-03-10T00:25:49.990Z,41.67
2024-03-10T00:28:35.656Z,48.70
2024-03-10T00:31:21.389Z,45.92
2024-03-10T00:34:06.865Z,50.00
2024-03-10T00:36:52.574Z,45.88
2024-03-10T00:39:38.443Z,45.20
2024-03-10T00:42:23.911Z,41.00
2024-03-10T00:45:10.781Z,43.22
2024-03-10T00:47:56.667Z,45.67
2024-03-10T00:50:42.455Z,45.72
2024-03-10T00:53:28.313Z,45.25
2024-03-10T00:56:19.824Z,42.55
2024-03-10T00:59:05.777Z,46.40
2024-03-10T01:01:51.338Z,43.10
2024-03-10T01:04:36.923Z,45.72
2024-03-10T01:07:22.725Z,51.15
2024-03-10T01:10:09.243Z,39.58
2024-03-10T01:12:58.048Z,43.63
2024-03-10T01:15:43.538Z,49.80
2024-03-10T01:18:29.576Z,47.38
2024-03-10T01:21:15.224Z,47.60
2024-03-10T01:24:00.922Z,47.38
2024-03-10T01:26:47.127Z,46.13
2024-03-10T01:29:33.810Z,45.03
2024-03-10T01:32:19.317Z,50.70
2024-03-10T01:35:07.192Z,44.67
2024-03-10T01:37:55.843Z,43.85
2024-03-10T01:40:41.150Z,45.03
2024-03-10T01:43:26.919Z,47.80
2024-03-10T01:46:13.405Z,49.78
2024-03-10T01:48:58.803Z,49.45
2024-03-10T01:51:44.725Z,48.15
2024-03-10T01:54:34.445Z,47.45
2024-03-10T01:57:20.821Z,48.25
2024-03-10T02:00:08.179Z,45.50
2024-03-10T02:02:54.733Z,47.25
2024-03-10T02:05:42.560Z,49.10
2024-03-10T02:08:30.190Z,48.80
2024-03-10T02:11:16.392Z,50.35
2024-03-10T02:14:01.892Z,51.00
2024-03-10T02:16:50.545Z,49.63
2024-03-10T02:19:35.840Z,44.58
2024-03-10T02:22:21.782Z,51.60
2024-03-10T02:25:07.784Z,48.28
2024-03-10T02:27:53.835Z,50.50
2024-03-10T02:30:44.390Z,49.67
2024-03-10T02:33:48.467Z,57.70
2024-03-10T02:36:52.254Z,49.65
2024-03-10T02:39:56.220Z,48.45
2024-03-10T02:43:00.069Z,50.15
2024-03-10T02:46:06.743Z,49.13
2024-03-10T02:48:52.489Z,50.50
2024-03-10T02:51:37.934Z,51.70
2024-03-10T02:54:23.329Z,49.13
2024-03-10T02:57:08.930Z,48.13
2024-03-10T02:59:55.290Z,46.05
2024-03-10T03:02:40.724Z,46.70
2024-03-10T03:05:29.459Z,53.42
2024-03-10T03:08:15.080Z,45.97
2024-03-10T03:11:00.788Z,49.35
2024-03-10T03:13:47.149Z,46.40
2024-03-10T03:16:34.056Z,45.92
2024-03-10T03:19:19.523Z,47.97
2024-03-10T03:22:08.183Z,47.22
2024-03-10T03:24:54.860Z,49.53
2024-03-10T03:27:42.245Z,49.33
2024-03-10T03:30:27.369Z,46.40
2024-03-10T03:33:13.812Z,52.17
2024-03-10T03:36:02.105Z,53.05
2024-03-10T03:38:47.660Z,48.55
2024-03-10T03:41:33.608Z,47.58
2024-03-10T03:44:19.673Z,45.53
2024-03-10T03:47:05.611Z,62.22
2024-03-10T03:49:51.143Z,47.50
2024-03-10T03:52:37.503Z,46.17
2024-03-10T03:55:23.784Z,46.38
2024-03-10T03:58:09.918Z,53.00
2024-03-10T04:00:55.445Z,41.72
2024-03-10T04:03:43.750Z,46.50
2024-03-10T04:06:29.517Z,47.95
2024-03-10T04:09:18.173Z,48.22
2024-03-10T04:12:04.193Z,46.13
2024-03-10T04:14:49.807Z,47.53
2024-03-10T04:17:35.611Z,50.72
2024-03-10T04:20:25.508Z,46.83
2024-03-10T04:23:11.744Z,55.97
2024-03-10T04:25:57.725Z,46.95
2024-03-10T04:28:43.021Z,49.35
2024-03-10T04:31:29.680Z,48.78
2024-03-10T04:34:15.182Z,42.15
2024-03-10T04:37:01.222Z,48.13
2024-03-10T04:39:46.687Z,44.08
2024-03-10T04:42:32.192Z,49.97
2024-03-10T04:45:17.945Z,47.65
2024-03-10T04:48:04.218Z,44.13
2024-03-10T04:50:50.711Z,46.58
2024-03-10T04:53:36.377Z,44.20
2024-03-10T04:56:21.983Z,42.17
2024-03-10T04:59:07.749Z,46.78
2024-03-10T05:01:55.652Z,47.15
2024-03-10T05:04:41.320Z,52.00
2024-03-10T05:07:26.706Z,42.00
2024-03-10T05:10:12.306Z,52.08
2024-03-10T05:12:57.858Z,52.55
2024-03-10T05:15:43.525Z,52.65
2024-03-10T05:18:29.035Z,51.80
2024-03-10T05:21:14.932Z,56.58
2024-03-10T05:24:00.228Z,49.90
2024-03-10T05:26:45.832Z,47.28
2024-03-10T05:29:31.419Z,55.15
2024-03-10T05:32:17.373Z,48.83
2024-03-10T05:35:06.417Z,49.53
2024-03-10T05:37:51.879Z,52.35
2024-03-10T05:40:37.268Z,48.85
2024-03-10T05:43:23.485Z,46.85
2024-03-10T05:46:09.113Z,48.10
2024-03-10T05:48:57.118Z,48.92
2024-03-10T05:51:43.033Z,45.35
2024-03-10T05:54:30.969Z,49.28
2024-03-10T05:57:16.898Z,56.00
2024-03-10T06:00:02.845Z,50.55
2024-03-10T06:02:49.881Z,53.00
2024-03-10T06:05:36.124Z,44.35
2024-03-10T06:08:21.708Z,54.28
2024-03-10T06:11:07.340Z,45.40
2024-03-10T06:13:52.924Z,51.65
2024-03-10T06:16:38.480Z,53.95
2024-03-10T06:19:42.957Z,47.13
2024-03-10T06:22:47.819Z,48.13
2024-03-10T06:25:33.536Z,50.20
2024-03-10T06:28:19.759Z,50.80
2024-03-10T06:31:05.514Z,50.13
2024-03-10T06:33:52.855Z,52.53
2024-03-10T06:36:38.491Z,52.97
2024-03-10T06:39:25.663Z,50.22
2024-03-10T06:42:10.963Z,50.70
2024-03-10T06:44:56.885Z,52.65
2024-03-10T06:47:43.012Z,52.38
2024-03-10T06:50:33.233Z,52.30
2024-03-10T06:53:19.120Z,59.22
2024-03-10T06:56:07.358Z,56.67
2024-03-10T06:58:55.416Z,60.70
2024-03-10T07:01:47.140Z,59.55
2024-03-10T07:04:34.172Z,68.50
2024-03-10T07:07:19.710Z,50.08
2024-03-10T07:10:06.231Z,53.05
2024-03-10T07:12:51.910Z,52.13
2024-03-10T07:15:37.933Z,59.17
2024-03-10T07:18:23.545Z,61.63
2024-03-10T07:21:10.152Z,51.00
2024-03-10T07:23:55.645Z,50.88
2024-03-10T07:26:42.826Z,50.60
2024-03-10T07:29:28.470Z,51.28
2024-03-10T07:32:14.102Z,45.38
2024-03-10T07:34:59.758Z,51.35
2024-03-10T07:37:45.775Z,54.28
2024-03-10T07:40:31.442Z,50.75
2024-03-10T07:43:16.952Z,48.33
2024-03-10T07:46:03.515Z,49.45
2024-03-10T07:48:50.783Z,46.78
2024-03-10T07:51:36.134Z,45.47
2024-03-10T07:54:22.519Z,48.75
2024-03-10T07:57:07.968Z,46.85
2024-03-10T07:59:56.376Z,46.58
2024-03-10T08:02:42.470Z,43.67
2024-03-10T08:05:31.338Z,52.88
2024-03-10T08:08:17.393Z,43.50
2024-03-10T08:11:05.183Z,50.17
2024-03-10T08:13:53.142Z,49.45
2024-03-10T08:16:39.163Z,45.92
2024-03-10T08:19:25.097Z,41.92
2024-03-10T08:22:10.903Z,45.05
2024-03-10T08:24:57.896Z,41.97
2024-03-10T08:27:45.024Z,46.97
2024-03-10T08:30:30.852Z,39.42
2024-03-10T08:33:18.644Z,40.35
2024-03-10T08:36:04.316Z,41.53
2024-03-10T08:38:50.257Z,38.58
2024-03-10T08:41:36.734Z,45.30
2024-03-10T08:44:23.768Z,43.03
2024-03-10T08:47:09.073Z,40.33
2024-03-10T08:49:54.876Z,39.72
2024-03-10T08:52:40.830Z,34.60
2024-03-10T08:55:26.090Z,36.40
2024-03-10T08:58:12.897Z,39.25
2024-03-10T09:00:59.743Z,36.03
2024-03-10T09:03:45.860Z,38.25
2024-03-10T09:06:31.562Z,38.95
2024-03-10T09:09:19.722Z,38.92
2024-03-10T09:12:05.476Z,38.03
2024-03-10T09:14:52.629Z,39.35
2024-03-10T09:17:43.032Z,38.85
2024-03-10T09:20:28.632Z,39.03
2024-03-10T09:23:14.258Z,43.13
2024-03-10T09:26:01.852Z,40.78
2024-03-10T09:28:47.504Z,38.05
2024-03-10T09:31:33.559Z,38.40
2024-03-10T09:34:22.014Z,42.38
2024-03-10T09:37:10.243Z,40.20
2024-03-10T09:39:55.646Z,40.38
2024-03-10T09:42:41.670Z,52.78
2024-03-10T09:45:28.804Z,38.63
2024-03-10T09:48:15.160Z,37.55
2024-03-10T09:51:01.533Z,36.58
2024-03-10T09:53:49.365Z,30.67
2024-03-10T09:56:37.536Z,35.75
2024-03-10T09:59:31.417Z,35.47
2024-03-10T10:02:36.939Z,33.40
2024-03-10T10:05:33.686Z,30.13
2024-03-10T10:08:19.497Z,29.98
2024-03-10T10:11:09.747Z,39.92
2024-03-10T10:14:08.863Z,42.65
2024-03-10T10:17:00.433Z,30.58
2024-03-10T10:19:48.157Z,37.20
2024-03-10T10:22:35.986Z,40.03
2024-03-10T10:25:23.254Z,37.60
2024-03-10T10:28:10.567Z,26.17
2024-03-10T10:31:18.693Z,28.95
2024-03-10T10:34:08.157Z,32.63
2024-03-10T10:36:57.842Z,35.90
2024-03-10T10:39:43.594Z,29.25
2024-03-10T10:42:34.208Z,38.97
2024-03-10T10:45:21.133Z,29.33
2024-03-10T10:48:08.842Z,37.85
2024-03-10T10:50:54.425Z,29.92
2024-03-10T10:53:41.223Z,30.05
2024-03-10T10:56:28.071Z,31.02
2024-03-10T10:59:19.302Z,28.20
2024-03-10T11:02:10.127Z,30.00
2024-03-10T11:05:02.497Z,28.25
2024-03-10T11:10:48.609Z,24.17
2024-03-10T11:13:34.943Z,22.85
2024-03-10T11:16:25.914Z,21.75
2024-03-10T11:19:17.268Z,26.02
2024-03-10T11:22:05.342Z,25.95
2024-03-10T11:25:10.971Z,26.42
2024-03-10T11:27:56.786Z,24.10
2024-03-10T11:30:42.276Z,22.10
2024-03-10T11:33:28.864Z,28.95
2024-03-10T11:36:14.488Z,23.88
2024-03-10T11:39:03.117Z,26.70
2024-03-10T11:41:50.199Z,26.63
2024-03-10T11:44:37.052Z,24.77
2024-03-10T11:47:24.941Z,36.50
2024-03-10T11:50:10.989Z,89.22
2024-03-10T11:52:56.573Z,45.90
2024-03-10T11:55:42.535Z,24.58
2024-03-10T11:58:30.906Z,31.95
2024-03-10T12:01:17.975Z,27.83
2024-03-10T12:04:07.537Z,24.60
2024-03-10T12:06:54.506Z,30.17
2024-03-10T12:09:40.867Z,31.25
2024-03-10T12:12:33.819Z,28.35
2024-03-10T12:15:20.401Z,23.23
2024-03-10T12:18:07.240Z,21.27
2024-03-10T12:20:54.452Z,26.15
2024-03-10T12:23:39.763Z,23.45
2024-03-10T12:26:26.249Z,22.48
2024-03-10T12:29:21.349Z,20.58
2024-03-10T12:32:10.250Z,20.13
2024-03-10T12:34:55.832Z,19.75
2024-03-10T12:37:41.781Z,18.27
2024-03-10T12:40:27.387Z,22.67
2024-03-10T12:43:12.771Z,25.63
2024-03-10T12:45:58.656Z,20.88
2024-03-10T12:48:43.998Z,20.33
2024-03-10T12:51:29.465Z,26.05
2024-03-10T12:54:17.717Z,26.73
2024-03-10T12:57:03.029Z,23.63
2024-03-10T12:59:48.787Z,31.73
2024-03-10T13:02:34.299Z,25.60
2024-03-10T13:05:22.503Z,25.65
2024-03-10T13:08:10.862Z,27.10
2024-03-10T13:10:56.702Z,28.30
2024-03-10T13:13:45.126Z,28.65
2024-03-10T13:16:30.864Z,22.15
2024-03-10T13:19:16.554Z,24.80
2024-03-10T13:22:02.096Z,18.52
2024-03-10T13:24:50.311Z,27.40
2024-03-10T13:27:38.469Z,26.42
2024-03-10T13:30:24.072Z,27.05
2024-03-10T13:33:12.016Z,24.50
2024-03-10T13:36:06.557Z,25.75
2024-03-10T13:38:59.411Z,30.83
2024-03-10T13:41:45.019Z,25.30
2024-03-10T13:44:32.720Z,26.70
2024-03-10T13:47:21.333Z,32.05
2024-03-10T13:50:08.399Z,28.27
2024-03-10T13:52:56.521Z,24.25
2024-03-10T13:55:42.086Z,30.20
2024-03-10T13:58:27.748Z,23.83
2024-03-10T14:01:13.568Z,27.30
2024-03-10T14:03:59.390Z,31.10
2024-03-10T14:06:44.993Z,32.60
2024-03-10T14:09:30.543Z,21.20
2024-03-10T14:12:16.409Z,33.30
2024-03-10T14:15:02.929Z,32.67
2024-03-10T14:17:48.853Z,27.60
2024-03-10T14:20:39.243Z,24.02
2024-03-10T14:23:27.068Z,22.15
2024-03-10T14:26:13.343Z,27.27
2024-03-10T14:28:59.064Z,30.70
2024-03-10T14:31:44.399Z,28.08
2024-03-10T14:34:29.981Z,25.65
2024-03-10T14:37:15.580Z,30.58
2024-03-10T14:40:05.503Z,26.83
2024-03-10T14:42:56.874Z,24.60
2024-03-10T14:45:42.143Z,25.13
2024-03-10T14:48:28.971Z,28.05
2024-03-10T14:51:17.992Z,25.85
2024-03-10T14:54:08.527Z,27.45
2024-03-10T14:56:56.156Z,25.55
2024-03-10T14:59:41.565Z,40.53
2024-03-10T15:02:30.144Z,28.38
2024-03-10T15:05:15.917Z,24.80
2024-03-10T15:08:06.310Z,30.98
2024-03-10T15:10:57.634Z,26.25
2024-03-10T15:13:43.761Z,24.83
2024-03-10T15:16:30.496Z,25.13
2024-03-10T15:19:17.674Z,23.45
2024-03-10T15:22:03.822Z,19.48
2024-03-10T15:24:49.331Z,23.13
2024-03-10T15:27:35.599Z,28.95
2024-03-10T15:30:21.436Z,20.83
2024-03-10T15:33:12.787Z,25.25
2024-03-10T15:36:00.684Z,18.15
2024-03-10T15:38:46.167Z,31.55
2024-03-10T15:41:32.361Z,21.40
2024-03-10T15:44:18.917Z,25.63
2024-03-10T15:47:04.669Z,21.33
2024-03-10T15:49:50.191Z,25.80
2024-03-10T15:52:35.789Z,27.83
2024-03-10T15:55:24.729Z,20.95
2024-03-10T15:58:13.140Z,23.70
2024-03-10T16:00:58.726Z,21.98
2024-03-10T16:03:50.248Z,28.35
2024-03-10T16:06:36.227Z,22.73
2024-03-10T16:09:22.597Z,20.70
2024-03-10T16:12:09.756Z,23.02
2024-03-10T16:14:55.437Z,22.20
2024-03-10T16:17:41.322Z,27.95
2024-03-10T16:20:27.404Z,24.85
2024-03-10T16:23:13.196Z,28.92
2024-03-10T16:25:58.939Z,21.23
2024-03-10T16:28:45.760Z,26.90
2024-03-10T16:31:32.293Z,32.22
2024-03-10T16:34:18.052Z,28.45
2024-03-10T16:37:06.309Z,25.50
2024-03-10T16:39:53.028Z,29.98
2024-03-10T16:42:43.833Z,26.60
2024-03-10T16:45:30.519Z,28.73
2024-03-10T16:48:16.920Z,23.30
2024-03-10T16:51:09.599Z,33.42
2024-03-10T16:56:41.442Z,23.85
2024-03-10T16:59:29.338Z,27.35
2024-03-10T17:02:15.843Z,26.88
2024-03-10T17:05:02.180Z,30.90
2024-03-10T17:07:48.014Z,27.08
2024-03-10T17:10:33.588Z,29.58
2024-03-10T17:13:19.138Z,22.90
2024-03-10T17:16:07.976Z,28.13
2024-03-10T17:18:53.347Z,24.77
2024-03-10T17:21:40.972Z,25.63
2024-03-10T17:24:26.527Z,29.10
2024-03-10T17:27:12.323Z,23.77
2024-03-10T17:29:58.843Z,26.75
2024-03-10T17:32:46.386Z,32.35
2024-03-10T17:35:32.467Z,39.45
2024-03-10T17:38:19.112Z,46.92
2024-03-10T17:41:04.936Z,57.22
2024-03-10T17:43:50.600Z,55.40
2024-03-10T17:46:38.411Z,69.10
2024-03-10T17:49:23.888Z,33.72
2024-03-10T17:52:09.472Z,24.20
2024-03-10T17:54:54.783Z,36.45
2024-03-10T17:57:40.439Z,27.27
2024-03-10T18:00:27.620Z,23.60
2024-03-10T18:03:13.150Z,34.47
2024-03-10T18:06:00.899Z,25.30
2024-03-10T18:08:46.401Z,30.95
2024-03-10T18:11:31.850Z,26.85
2024-03-10T18:14:18.205Z,27.30
2024-03-10T18:17:03.798Z,34.85
2024-03-10T18:19:50.968Z,31.90
2024-03-10T18:22:37.045Z,25.90
2024-03-10T18:25:25.025Z,36.70
2024-03-10T18:28:10.930Z,29.95
2024-03-10T18:30:56.301Z,28.17
2024-03-10T18:33:43.909Z,33.03
2024-03-10T18:36:30.891Z,31.00
2024-03-10T18:39:19.076Z,28.83
2024-03-10T18:42:04.787Z,36.10
2024-03-10T18:44:50.506Z,30.95
2024-03-10T18:47:39.418Z,30.52
2024-03-10T18:50:27.941Z,33.67
2024-03-10T18:53:14.338Z,33.72
2024-03-10T18:56:02.748Z,30.85
2024-03-10T18:58:50.394Z,32.20
2024-03-10T19:01:36.466Z,27.65
2024-03-10T19:04:21.764Z,28.80
2024-03-10T19:07:07.382Z,26.90
2024-03-10T19:09:55.617Z,24.88
2024-03-10T19:12:47.123Z,28.95
2024-03-10T19:15:33.011Z,29.50
2024-03-10T19:18:18.386Z,25.85
2024-03-10T19:21:07.784Z,30.77
2024-03-10T19:23:53.200Z,27.73
2024-03-10T19:26:38.909Z,27.55
2024-03-10T19:29:27.073Z,23.63
2024-03-10T19:32:12.393Z,23.58
2024-03-10T19:34:58.181Z,27.27
2024-03-10T19:37:46.181Z,26.55
2024-03-10T19:40:31.851Z,30.50
2024-03-10T19:43:17.340Z,23.15
2024-03-10T19:46:03.015Z,24.95
2024-03-10T19:48:49.721Z,28.13
2024-03-10T19:51:35.010Z,24.23
2024-03-10T19:54:20.617Z,27.13
2024-03-10T19:57:06.989Z,23.50
2024-03-10T19:59:53.371Z,27.05
2024-03-10T20:02:38.886Z,19.95
2024-03-10T20:05:24.564Z,24.73
2024-03-10T20:08:11.174Z,22.77
2024-03-10T20:10:58.924Z,28.08
2024-03-10T20:13:44.588Z,24.48
2024-03-10T20:16:30.046Z,22.95
2024-03-10T20:19:15.582Z,23.13
2024-03-10T20:22:01.261Z,23.10
2024-03-10T20:24:46.723Z,33.42
2024-03-10T20:27:33.517Z,31.77
2024-03-10T20:30:19.368Z,20.33
2024-03-10T20:33:05.658Z,23.05
2024-03-10T20:35:55.486Z,23.92
2024-03-10T20:38:41.143Z,27.17
2024-03-10T20:41:26.681Z,24.05
2024-03-10T20:44:17.800Z,24.38
2024-03-10T20:47:03.743Z,23.70
2024-03-10T20:49:49.265Z,22.90
2024-03-10T20:52:34.546Z,23.80
2024-03-10T20:55:20.409Z,25.77
2024-03-10T20:58:07.053Z,22.60
2024-03-10T21:00:55.657Z,25.85
2024-03-10T21:03:42.187Z,24.52
2024-03-10T21:06:29.747Z,25.27
2024-03-10T21:09:16.269Z,20.98
2024-03-10T21:12:02.541Z,22.98
2024-03-10T21:14:48.293Z,20.00
2024-03-10T21:17:33.876Z,17.25
2024-03-10T21:20:20.711Z,18.17
2024-03-10T21:23:06.804Z,20.25
2024-03-10T21:25:52.861Z,25.35
2024-03-10T21:28:38.195Z,20.90
2024-03-10T21:31:23.842Z,20.23
2024-03-10T21:34:09.760Z,20.33
2024-03-10T21:36:55.551Z,25.02
2024-03-10T21:39:42.725Z,20.77
2024-03-10T21:42:28.116Z,22.80
2024-03-10T21:45:13.652Z,21.02
2024-03-10T21:48:00.249Z,22.85
2024-03-10T21:50:46.126Z,23.17
2024-03-10T21:53:33.832Z,24.05
2024-03-10T21:56:20.219Z,24.13
2024-03-10T21:59:06.198Z,22.02
2024-03-10T22:01:51.891Z,24.08
2024-03-10T22:04:38.730Z,17.85
2024-03-10T22:07:24.054Z,14.45
2024-03-10T22:10:10.348Z,20.33
2024-03-10T22:12:55.824Z,27.88
2024-03-10T22:15:43.000Z,19.25
2024-03-10T22:18:29.364Z,23.60
2024-03-10T22:21:14.771Z,21.70
2024-03-10T22:24:00.239Z,19.20
2024-03-10T22:26:47.137Z,23.98
2024-03-10T22:29:33.178Z,22.75
2024-03-10T22:32:18.735Z,20.58
2024-03-10T22:35:09.825Z,20.88
2024-03-10T22:38:05.222Z,22.30
2024-03-10T22:40:51.383Z,22.63
2024-03-10T22:43:37.189Z,22.52
2024-03-10T22:46:22.785Z,23.23
2024-03-10T22:49:08.513Z,18.98
2024-03-10T22:51:53.793Z,23.00
2024-03-10T22:54:39.493Z,21.17
2024-03-10T22:57:25.296Z,23.05
2024-03-10T23:00:23.242Z,20.55
2024-03-10T23:03:15.857Z,20.60
2024-03-10T23:06:01.925Z,24.30
2024-03-10T23:08:50.113Z,23.10
2024-03-10T23:11:36.139Z,20.85
2024-03-10T23:14:21.797Z,21.70
2024-03-10T23:17:07.538Z,27.17
2024-03-10T23:19:53.046Z,21.83
2024-03-10T23:22:38.629Z,22.08
2024-03-10T23:25:26.055Z,22.27
2024-03-10T23:28:11.627Z,21.15
2024-03-10T23:30:56.821Z,21.25
2024-03-10T23:33:42.509Z,22.58
2024-03-10T23:36:27.991Z,20.77
2024-03-10T23:39:13.517Z,21.30
2024-03-10T23:41:59.299Z,21.38
2024-03-10T23:44:44.923Z,19.40
2024-03-10T23:47:30.611Z,19.95
2024-03-10T23:50:20.807Z,23.67
2024-03-10T23:53:07.628Z,19.02
2024-03-10T23:56:00.697Z,15.65
2024-03-10T23:58:49.796Z,18.02
